Darstellungsparameter: Aktuell verwendete Einstellungen:
Skalierung der Graphiken ... ?
xyx+y,   Skalierungsfaktor:      Skalierung: Modus: x, Faktor: 1
Darstellungszeitraum ... ?
Vom - - bis: - -   Zeitraum: 25.08.2010 - 24.09.2010
Min/Max/Avg-Anzeige ... ?
Zeige MMA aktuell
Zeige MMA Monat
Zeige MMA alles
Zeige --A aktuell
Zeige --A Monat
Zeige --A alles
Keine MMA-Anzeige
MMA:
Average (ber die Originaldaten)
MMA-Basis: 25.08.2010 - 24.09.2010
Quicknavigation für Darstellung... ?
Tage:      1T, 2T, 3T, 5T -1T -2T -3T -5T +1T +2T +3T +5T
Wochen: 1W, 2W, 3W -1W -2W -3W +1W +2W +3W
Monate: 1M, 3M, 6M -1M -3M -6M +1M +3M +6M
Jahre:    1J, 3J, 5J, 10J -1J -3J -5J -10J +1J +3J +5J +10J
Nutze für die Darstellung ... ?
Originaldaten oder ...
Mittelwerte Minima Maxima auf...
Stundenbasis Tagesbasis Wochenbasis
Monatsbasis Jahresbasis      Datenbasis: Mittelwerte auf Stundenbasis
Darstellen als:
Statistik (Auto) Statistik J:M      Darstellung:
Zur Graphik,    zurück zur Übersicht aller Sensoren.
 
Tabellarische Datenbersicht: ?
 
Sensor: Nr:Datum:Temp:Abs-Feuchte:Windchill:Wind:
Aussen-T/F 1 25-08-2010 00:00:00 16.16 C 6.55 g/m*3 16.16 C 0 km/h
2 25-08-2010 01:00:00 15.52 C 6.8 g/m*3 15.52 C 0 km/h
3 25-08-2010 02:00:00 14.66 C 7.11 g/m*3 14.66 C 0 km/h
4 25-08-2010 03:00:00 13.76 C 7.56 g/m*3 13.76 C 0 km/h
5 25-08-2010 04:00:00 13.4 C 7.7 g/m*3 13.4 C 0 km/h
6 25-08-2010 05:00:00 13.38 C 7.52 g/m*3 13.38 C 0 km/h
7 25-08-2010 06:00:00 12.94 C 7.71 g/m*3 12.94 C 0 km/h
8 25-08-2010 07:00:00 12.76 C 7.84 g/m*3 12.76 C 0 km/h
9 25-08-2010 08:00:00 13.54 C 7.86 g/m*3 13.54 C 0 km/h
10 25-08-2010 09:00:00 14.92 C 7.91 g/m*3 14.92 C 0 km/h
11 25-08-2010 10:00:00 16.3 C 7.8 g/m*3 16.3 C 0 km/h
12 25-08-2010 11:00:00 17.9 C 7.82 g/m*3 17.9 C 0 km/h
13 25-08-2010 12:00:00 20 C 7.19 g/m*3 20 C 0 km/h
14 25-08-2010 13:00:00 20.82 C 6.67 g/m*3 20.82 C 0 km/h
15 25-08-2010 14:00:00 21.46 C 6.43 g/m*3 21.46 C 0 km/h
16 25-08-2010 15:00:00 23.54 C 6.1 g/m*3 23.54 C 0 km/h
17 25-08-2010 16:00:00 24.46 C 5.67 g/m*3 24.46 C 0 km/h
18 25-08-2010 17:00:00 23.2 C 6.65 g/m*3 23.2 C 0 km/h
19 25-08-2010 18:00:00 21.9 C 7.1 g/m*3 21.9 C 0 km/h
20 25-08-2010 19:00:00 20.22 C 7.91 g/m*3 20.22 C 0 km/h
21 25-08-2010 20:00:00 19.04 C 8.23 g/m*3 19.04 C 0 km/h
22 25-08-2010 21:00:00 18.12 C 8.35 g/m*3 18.12 C 0 km/h
23 25-08-2010 22:00:00 17.56 C 8.5 g/m*3 17.56 C 0 km/h
24 25-08-2010 23:00:00 17.3 C 8.81 g/m*3 17.3 C 0 km/h
25 26-08-2010 00:00:00 17.28 C 9.06 g/m*3 17.28 C 0 km/h
Sensor: Nr:Datum:Temp:Abs-Feuchte:Windchill:Wind:
Aussen-T/F 26 26-08-2010 01:00:00 17.48 C 9.11 g/m*3 17.48 C 0 km/h
27 26-08-2010 02:00:00 16.88 C 9.97 g/m*3 16.88 C 0 km/h
28 26-08-2010 03:00:00 16.86 C 10.04 g/m*3 16.86 C 0 km/h
29 26-08-2010 04:00:00 16.94 C 9.86 g/m*3 16.94 C 0 km/h
30 26-08-2010 05:00:00 18.28 C 10.31 g/m*3 18.28 C 0 km/h
31 26-08-2010 06:00:00 18.18 C 10.53 g/m*3 18.18 C 0 km/h
32 26-08-2010 07:00:00 19.26 C 10.69 g/m*3 19.26 C 0 km/h
33 26-08-2010 08:00:00 20.2 C 11.12 g/m*3 20.2 C 0 km/h
34 26-08-2010 09:00:00 21.52 C 11.33 g/m*3 21.52 C 0 km/h
35 26-08-2010 10:00:00 22.76 C 11.19 g/m*3 22.76 C 0 km/h
36 26-08-2010 11:00:00 23.76 C 11.16 g/m*3 23.76 C 0 km/h
37 26-08-2010 12:00:00 23.54 C 11.15 g/m*3 23.54 C 0 km/h
38 26-08-2010 13:00:00 22.96 C 11.2 g/m*3 22.96 C 0 km/h
39 26-08-2010 14:00:00 23.8 C 11.19 g/m*3 23.8 C 0 km/h
40 26-08-2010 15:00:00 23.68 C 11.32 g/m*3 23.68 C 0 km/h
41 26-08-2010 16:00:00 23.94 C 11.28 g/m*3 23.94 C 0 km/h
42 26-08-2010 17:00:00 23.62 C 11.29 g/m*3 23.62 C 0 km/h
43 26-08-2010 18:00:00 23.18 C 11.67 g/m*3 23.18 C 0 km/h
44 26-08-2010 19:00:00 21.66 C 13.36 g/m*3 21.66 C 0 km/h
45 26-08-2010 20:00:00 20.94 C 14.49 g/m*3 20.94 C 0 km/h
46 26-08-2010 21:00:00 20.42 C 14.03 g/m*3 20.42 C 0 km/h
47 26-08-2010 22:00:00 19.76 C 14.62 g/m*3 19.76 C 0 km/h
48 26-08-2010 23:00:00 19.44 C 14.95 g/m*3 19.44 C 0 km/h
49 27-08-2010 00:00:00 18.98 C 14.91 g/m*3 18.98 C 0 km/h
50 27-08-2010 01:00:00 18.76 C 14.97 g/m*3 18.76 C 0 km/h
Sensor: Nr:Datum:Temp:Abs-Feuchte:Windchill:Wind:
Aussen-T/F 51 27-08-2010 02:00:00 18.62 C 14.98 g/m*3 18.62 C 0 km/h
52 27-08-2010 03:00:00 18.38 C 14.77 g/m*3 18.38 C 0 km/h
53 27-08-2010 04:00:00 18.34 C 14.73 g/m*3 18.34 C 0 km/h
54 27-08-2010 05:00:00 18.4 C 14.88 g/m*3 18.4 C 0 km/h
55 27-08-2010 06:00:00 18.82 C 15.32 g/m*3 18.82 C 0 km/h
56 27-08-2010 07:00:00 18.68 C 15.03 g/m*3 18.68 C 0 km/h
57 27-08-2010 08:00:00 18.58 C 14.94 g/m*3 18.58 C 0 km/h
58 27-08-2010 09:00:00 19.26 C 15.06 g/m*3 19.26 C 0 km/h
59 27-08-2010 10:00:00 19.32 C 14.35 g/m*3 19.32 C 0 km/h
60 27-08-2010 11:00:00 18.16 C 13.58 g/m*3 18.16 C 0 km/h
61 27-08-2010 12:00:00 20.1 C 13.52 g/m*3 20.1 C 0 km/h
62 27-08-2010 13:00:00 22.92 C 12.6 g/m*3 22.92 C 0 km/h
63 27-08-2010 14:00:00 20.76 C 12.07 g/m*3 20.76 C 0 km/h
64 27-08-2010 15:00:00 18.92 C 13.49 g/m*3 18.92 C 0 km/h
65 27-08-2010 16:00:00 21.9 C 12.89 g/m*3 21.9 C 0 km/h
66 27-08-2010 17:00:00 21.3 C 11.71 g/m*3 21.3 C 0 km/h
67 27-08-2010 18:00:00 16.8 C 12.01 g/m*3 16.8 C 0 km/h
68 27-08-2010 19:00:00 15.64 C 10.93 g/m*3 15.64 C 0 km/h
69 27-08-2010 20:00:00 15.12 C 10.44 g/m*3 15.12 C 0 km/h
70 27-08-2010 21:00:00 14.58 C 10.17 g/m*3 14.58 C 0 km/h
71 27-08-2010 22:00:00 14.74 C 10.02 g/m*3 14.74 C 0 km/h
72 27-08-2010 23:00:00 13.96 C 9.34 g/m*3 13.96 C 0 km/h
73 28-08-2010 00:00:00 13.78 C 9.21 g/m*3 13.78 C 0 km/h
74 28-08-2010 01:00:00 13.1 C 9.88 g/m*3 13.1 C 0 km/h
75 28-08-2010 02:00:00 13.14 C 9.82 g/m*3 13.14 C 0 km/h
Sensor: Nr:Datum:Temp:Abs-Feuchte:Windchill:Wind:
Aussen-T/F 76 28-08-2010 03:00:00 13.1 C 9.56 g/m*3 13.1 C 0 km/h
77 28-08-2010 04:00:00 12.54 C 9.3 g/m*3 12.54 C 0 km/h
78 28-08-2010 05:00:00 12.12 C 9.15 g/m*3 12.12 C 0 km/h
79 28-08-2010 06:00:00 11.58 C 8.76 g/m*3 11.58 C 0 km/h
80 28-08-2010 07:00:00 11.72 C 8.88 g/m*3 11.72 C 0 km/h
81 28-08-2010 08:00:00 13.08 C 8.94 g/m*3 13.08 C 0 km/h
82 28-08-2010 09:00:00 14.22 C 8.58 g/m*3 14.22 C 0 km/h
83 28-08-2010 10:00:00 15.14 C 8.35 g/m*3 15.14 C 0 km/h
84 28-08-2010 11:00:00 16.44 C 7.81 g/m*3 16.44 C 0 km/h
85 28-08-2010 12:00:00 15.42 C 8.71 g/m*3 15.42 C 0 km/h
86 28-08-2010 13:00:00 16.24 C 10.62 g/m*3 16.24 C 0 km/h
87 28-08-2010 14:00:00 15.6 C 7.69 g/m*3 15.6 C 0 km/h
88 28-08-2010 15:00:00 16.72 C 7.46 g/m*3 16.72 C 0 km/h
89 28-08-2010 16:00:00 15.1 C 8.08 g/m*3 15.1 C 0 km/h
90 28-08-2010 17:00:00 15.6 C 8.67 g/m*3 15.6 C 0 km/h
91 28-08-2010 18:00:00 17.56 C 7.42 g/m*3 17.56 C 0 km/h
92 28-08-2010 19:00:00 15.26 C 8.34 g/m*3 15.26 C 0 km/h
93 28-08-2010 20:00:00 13.1 C 9.04 g/m*3 13.1 C 0 km/h
94 28-08-2010 21:00:00 12.46 C 9.12 g/m*3 12.46 C 0 km/h
95 28-08-2010 22:00:00 12.24 C 8.96 g/m*3 12.24 C 0 km/h
96 28-08-2010 23:00:00 12.36 C 8.72 g/m*3 12.36 C 0 km/h
97 29-08-2010 00:00:00 11.9 C 8.47 g/m*3 11.9 C 0 km/h
98 29-08-2010 01:00:00 11.5 C 8.45 g/m*3 11.5 C 0 km/h
99 29-08-2010 02:00:00 11.74 C 8.54 g/m*3 11.74 C 0 km/h
100 29-08-2010 03:00:00 11.76 C 8.48 g/m*3 11.76 C 0 km/h
Sensor: Nr:Datum:Temp:Abs-Feuchte:Windchill:Wind:
Aussen-T/F 101 29-08-2010 04:00:00 11.5 C 8.39 g/m*3 11.5 C 0 km/h
102 29-08-2010 05:00:00 11.74 C 8.33 g/m*3 11.74 C 0 km/h
103 29-08-2010 06:00:00 12.1 C 8.3 g/m*3 12.1 C 0 km/h
104 29-08-2010 07:00:00 12.2 C 8.33 g/m*3 12.2 C 0 km/h
105 29-08-2010 08:00:00 12.44 C 8.35 g/m*3 12.44 C 0 km/h
106 29-08-2010 09:00:00 14 C 8.18 g/m*3 14 C 0 km/h
107 29-08-2010 10:00:00 15.4 C 8.04 g/m*3 15.4 C 0 km/h
108 29-08-2010 11:00:00 16.26 C 7.92 g/m*3 16.26 C 0 km/h
109 29-08-2010 12:00:00 15.12 C 9.04 g/m*3 15.12 C 0 km/h
110 29-08-2010 13:00:00 16.04 C 8.71 g/m*3 16.04 C 0 km/h
111 29-08-2010 14:00:00 16.46 C 8.4 g/m*3 16.46 C 0 km/h
112 29-08-2010 15:00:00 15.08 C 8.92 g/m*3 15.08 C 0 km/h
113 29-08-2010 16:00:00 15.76 C 8.51 g/m*3 15.76 C 0 km/h
114 29-08-2010 17:00:00 14.96 C 8.31 g/m*3 14.96 C 0 km/h
115 29-08-2010 18:00:00 13.06 C 9.31 g/m*3 13.06 C 0 km/h
116 29-08-2010 19:00:00 12 C 9.29 g/m*3 12 C 0 km/h
117 29-08-2010 20:00:00 11.78 C 8.96 g/m*3 11.78 C 0 km/h
118 29-08-2010 21:00:00 11.64 C 8.71 g/m*3 11.64 C 0 km/h
119 29-08-2010 22:00:00 9.2 C 8.02 g/m*3 9.2 C 0 km/h
120 29-08-2010 23:00:00 9.12 C 8.16 g/m*3 9.12 C 0 km/h
121 30-08-2010 00:00:00 9.2 C 7.98 g/m*3 9.2 C 0 km/h
122 30-08-2010 01:00:00 9.94 C 7.84 g/m*3 9.94 C 0 km/h
123 30-08-2010 02:00:00 10.52 C 7.77 g/m*3 10.52 C 0 km/h
124 30-08-2010 03:00:00 10.82 C 7.66 g/m*3 10.82 C 0 km/h
125 30-08-2010 04:00:00 10.26 C 7.99 g/m*3 10.26 C 0 km/h
Sensor: Nr:Datum:Temp:Abs-Feuchte:Windchill:Wind:
Aussen-T/F 126 30-08-2010 05:00:00 9.62 C 8.02 g/m*3 9.62 C 0 km/h
127 30-08-2010 06:00:00 10.06 C 8.47 g/m*3 10.06 C 0 km/h
128 30-08-2010 07:00:00 9.96 C 8.4 g/m*3 9.96 C 0 km/h
129 30-08-2010 08:00:00 10.82 C 8.63 g/m*3 10.82 C 0 km/h
130 30-08-2010 09:00:00 10.98 C 8.64 g/m*3 10.98 C 0 km/h
131 30-08-2010 10:00:00 11.86 C 8.83 g/m*3 11.86 C 0 km/h
132 30-08-2010 11:00:00 13 C 8.32 g/m*3 13 C 0 km/h
133 30-08-2010 12:00:00 14.02 C 7.63 g/m*3 14.02 C 0 km/h
134 30-08-2010 13:00:00 16.04 C 6.77 g/m*3 16.04 C 0 km/h
135 30-08-2010 14:00:00 16.28 C 7.73 g/m*3 16.28 C 0 km/h
136 30-08-2010 15:00:00 17.48 C 7.8 g/m*3 17.48 C 0 km/h
137 30-08-2010 16:00:00 15.86 C 9.16 g/m*3 15.86 C 0 km/h
138 30-08-2010 17:00:00 15.04 C 9.23 g/m*3 15.04 C 0 km/h
139 30-08-2010 18:00:00 14.32 C 8.76 g/m*3 14.32 C 0 km/h
140 30-08-2010 19:00:00 14.04 C 8.97 g/m*3 14.04 C 0 km/h
141 30-08-2010 20:00:00 13.76 C 8.72 g/m*3 13.76 C 0 km/h
142 30-08-2010 21:00:00 12.72 C 9.56 g/m*3 12.72 C 0 km/h
143 30-08-2010 22:00:00 12.72 C 9.92 g/m*3 12.72 C 0 km/h
144 30-08-2010 23:00:00 12.3 C 9.69 g/m*3 12.3 C 0 km/h
145 31-08-2010 00:00:00 12.22 C 9.62 g/m*3 12.22 C 0 km/h
146 31-08-2010 01:00:00 12.42 C 9.45 g/m*3 12.42 C 0 km/h
147 31-08-2010 02:00:00 12.36 C 9.31 g/m*3 12.36 C 0 km/h
148 31-08-2010 03:00:00 12.1 C 9.07 g/m*3 12.1 C 0 km/h
149 31-08-2010 04:00:00 11.52 C 9.06 g/m*3 11.52 C 0 km/h
150 31-08-2010 05:00:00 11.38 C 9.04 g/m*3 11.38 C 0 km/h
Sensor: Nr:Datum:Temp:Abs-Feuchte:Windchill:Wind:
Aussen-T/F 151 31-08-2010 06:00:00 11.7 C 9.22 g/m*3 11.7 C 0 km/h
152 31-08-2010 07:00:00 12.2 C 9.09 g/m*3 12.2 C 0 km/h
153 31-08-2010 08:00:00 12.64 C 9.07 g/m*3 12.64 C 0 km/h
154 31-08-2010 09:00:00 13.58 C 8.86 g/m*3 13.58 C 0 km/h
155 31-08-2010 10:00:00 14.14 C 8.35 g/m*3 14.14 C 0 km/h
156 31-08-2010 11:00:00 15.6 C 8.09 g/m*3 15.6 C 0 km/h
157 31-08-2010 12:00:00 16.88 C 7.93 g/m*3 16.88 C 0 km/h
158 31-08-2010 13:00:00 17.96 C 6.99 g/m*3 17.96 C 0 km/h
159 31-08-2010 14:00:00 20.16 C 6.45 g/m*3 20.16 C 0 km/h
160 31-08-2010 15:00:00 21.2 C 5.86 g/m*3 21.2 C 0 km/h
161 31-08-2010 16:00:00 21.46 C 5.64 g/m*3 21.46 C 0 km/h
162 31-08-2010 17:00:00 21.82 C 5.57 g/m*3 21.82 C 0 km/h
163 31-08-2010 18:00:00 22.26 C 5.67 g/m*3 22.26 C 0 km/h
164 31-08-2010 19:00:00 20.32 C 6.55 g/m*3 20.32 C 0 km/h
165 31-08-2010 20:00:00 16.38 C 7.17 g/m*3 16.38 C 0 km/h
166 31-08-2010 21:00:00 14.44 C 7.61 g/m*3 14.44 C 0 km/h
167 31-08-2010 22:00:00 13.24 C 8.1 g/m*3 13.24 C 0 km/h
168 31-08-2010 23:00:00 12.32 C 8.09 g/m*3 12.32 C 0 km/h
169 01-09-2010 00:00:00 11.58 C 8.08 g/m*3 11.58 C 0 km/h
170 01-09-2010 01:00:00 10.98 C 8.1 g/m*3 10.98 C 0 km/h
171 01-09-2010 02:00:00 10.36 C 7.96 g/m*3 10.36 C 0 km/h
172 01-09-2010 03:00:00 9.74 C 7.97 g/m*3 9.74 C 0 km/h
173 01-09-2010 04:00:00 9.14 C 7.86 g/m*3 9.14 C 0 km/h
174 01-09-2010 05:00:00 8.92 C 7.95 g/m*3 8.92 C 0 km/h
175 01-09-2010 06:00:00 8.94 C 8.04 g/m*3 8.94 C 0 km/h
Sensor: Nr:Datum:Temp:Abs-Feuchte:Windchill:Wind:
Aussen-T/F 176 01-09-2010 07:00:00 9.02 C 7.98 g/m*3 9.02 C 0 km/h
177 01-09-2010 08:00:00 9.26 C 8.05 g/m*3 9.26 C 0 km/h
178 01-09-2010 09:00:00 10.22 C 8.14 g/m*3 10.22 C 0 km/h
179 01-09-2010 10:00:00 12.1 C 8.56 g/m*3 12.1 C 0 km/h
180 01-09-2010 11:00:00 14.26 C 8.78 g/m*3 14.26 C 0 km/h
181 01-09-2010 12:00:00 17.24 C 8.54 g/m*3 17.24 C 0 km/h
182 01-09-2010 13:00:00 19.52 C 7.96 g/m*3 19.52 C 0 km/h
183 01-09-2010 14:00:00 21.18 C 7.03 g/m*3 21.18 C 0 km/h
184 01-09-2010 15:00:00 23.6 C 6 g/m*3 23.6 C 0 km/h
185 01-09-2010 16:00:00 23.8 C 6.02 g/m*3 23.8 C 0 km/h
186 01-09-2010 17:00:00 22.04 C 6.38 g/m*3 22.04 C 0 km/h
187 01-09-2010 18:00:00 21.1 C 6.96 g/m*3 21.1 C 0 km/h
188 01-09-2010 19:00:00 19.62 C 7.88 g/m*3 19.62 C 0 km/h
189 01-09-2010 20:00:00 17.36 C 8.72 g/m*3 17.36 C 0 km/h
190 01-09-2010 21:00:00 16.24 C 8.85 g/m*3 16.24 C 0 km/h
191 01-09-2010 22:00:00 15.55 C 8.82 g/m*3 15.55 C 0 km/h
192 01-09-2010 23:00:00 14.16 C 8.28 g/m*3 14.16 C 0 km/h
193 02-09-2010 00:00:00 13.02 C 8.22 g/m*3 13.02 C 0 km/h
194 02-09-2010 01:00:00 12.32 C 8.37 g/m*3 12.32 C 0 km/h
195 02-09-2010 02:00:00 11.6 C 8.56 g/m*3 11.6 C 0 km/h
196 02-09-2010 03:00:00 11 C 8.31 g/m*3 11 C 0 km/h
197 02-09-2010 04:00:00 10.44 C 8.29 g/m*3 10.44 C 0 km/h
198 02-09-2010 05:00:00 10.32 C 8.5 g/m*3 10.32 C 0 km/h
199 02-09-2010 06:00:00 10.34 C 8.6 g/m*3 10.34 C 0 km/h
200 02-09-2010 07:00:00 10.68 C 8.81 g/m*3 10.68 C 0 km/h
Sensor: Nr:Datum:Temp:Abs-Feuchte:Windchill:Wind:
Aussen-T/F 201 02-09-2010 08:00:00 11.34 C 8.96 g/m*3 11.34 C 0 km/h
202 02-09-2010 09:00:00 12.4 C 8.98 g/m*3 12.4 C 0 km/h
203 02-09-2010 10:00:00 14.02 C 8.65 g/m*3 14.02 C 0 km/h
204 02-09-2010 11:00:00 15.46 C 9.02 g/m*3 15.46 C 0 km/h
205 02-09-2010 12:00:00 18.66 C 8.75 g/m*3 18.66 C 0 km/h
206 02-09-2010 13:00:00 20.84 C 7.37 g/m*3 20.84 C 0 km/h
207 02-09-2010 14:00:00 22.2 C 7.22 g/m*3 22.2 C 0 km/h
208 02-09-2010 15:00:00 21.42 C 6.91 g/m*3 21.42 C 0 km/h
209 02-09-2010 16:00:00 20.6 C 6.91 g/m*3 20.6 C 0 km/h
210 02-09-2010 17:00:00 19.54 C 7.13 g/m*3 19.54 C 0 km/h
211 02-09-2010 18:00:00 18.66 C 7.41 g/m*3 18.66 C 0 km/h
212 02-09-2010 19:00:00 17.64 C 8.93 g/m*3 17.64 C 0 km/h
213 02-09-2010 20:00:00 15.14 C 10.01 g/m*3 15.14 C 0 km/h
214 02-09-2010 21:00:00 14.42 C 9.85 g/m*3 14.42 C 0 km/h
215 02-09-2010 22:00:00 13.84 C 9.34 g/m*3 13.84 C 0 km/h
216 02-09-2010 23:00:00 12.98 C 9.2 g/m*3 12.98 C 0 km/h
217 03-09-2010 00:00:00 12.42 C 9.1 g/m*3 12.42 C 0 km/h
218 03-09-2010 01:00:00 11.82 C 8.92 g/m*3 11.82 C 0 km/h
219 03-09-2010 02:00:00 11.24 C 8.76 g/m*3 11.24 C 0 km/h
220 03-09-2010 03:00:00 10.72 C 8.63 g/m*3 10.72 C 0 km/h
221 03-09-2010 04:00:00 10.34 C 8.6 g/m*3 10.34 C 0 km/h
222 03-09-2010 05:00:00 10.4 C 8.75 g/m*3 10.4 C 0 km/h
223 03-09-2010 06:00:00 11.08 C 9.24 g/m*3 11.08 C 0 km/h
224 03-09-2010 07:00:00 11.36 C 9.32 g/m*3 11.36 C 0 km/h
225 03-09-2010 08:00:00 11.64 C 9.34 g/m*3 11.64 C 0 km/h
Sensor: Nr:Datum:Temp:Abs-Feuchte:Windchill:Wind:
Aussen-T/F 226 03-09-2010 09:00:00 12.44 C 9.29 g/m*3 12.44 C 0 km/h
227 03-09-2010 10:00:00 13.58 C 9.22 g/m*3 13.58 C 0 km/h
228 03-09-2010 11:00:00 15.9 C 8.94 g/m*3 15.9 C 0 km/h
229 03-09-2010 12:00:00 17.86 C 8.47 g/m*3 17.86 C 0 km/h
230 03-09-2010 13:00:00 19.68 C 8.18 g/m*3 19.68 C 0 km/h
231 03-09-2010 14:00:00 20.4 C 7.64 g/m*3 20.4 C 0 km/h
232 03-09-2010 15:00:00 22.78 C 7.02 g/m*3 22.78 C 0 km/h
233 03-09-2010 16:00:00 25.12 C 6.58 g/m*3 25.12 C 0 km/h
234 03-09-2010 17:00:00 24.12 C 6.53 g/m*3 24.12 C 0 km/h
235 03-09-2010 18:00:00 22.7 C 8.12 g/m*3 22.7 C 0 km/h
236 03-09-2010 19:00:00 20.7 C 8.86 g/m*3 20.7 C 0 km/h
237 03-09-2010 20:00:00 18.62 C 8.25 g/m*3 18.62 C 0 km/h
238 03-09-2010 21:00:00 16.32 C 8.56 g/m*3 16.32 C 0 km/h
239 03-09-2010 22:00:00 15.36 C 8.86 g/m*3 15.36 C 0 km/h
240 03-09-2010 23:00:00 15.34 C 9.22 g/m*3 15.34 C 0 km/h
241 04-09-2010 00:00:00 15.1 C 9.29 g/m*3 15.1 C 0 km/h
242 04-09-2010 01:00:00 14.82 C 9.41 g/m*3 14.82 C 0 km/h
243 04-09-2010 02:00:00 14.28 C 9.4 g/m*3 14.28 C 0 km/h
244 04-09-2010 03:00:00 13.72 C 9.41 g/m*3 13.72 C 0 km/h
245 04-09-2010 04:00:00 13.2 C 9.48 g/m*3 13.2 C 0 km/h
246 04-09-2010 05:00:00 13.1 C 9.59 g/m*3 13.1 C 0 km/h
247 04-09-2010 06:00:00 12.54 C 9.3 g/m*3 12.54 C 0 km/h
248 04-09-2010 07:00:00 12.08 C 9.25 g/m*3 12.08 C 0 km/h
249 04-09-2010 08:00:00 12.8 C 9.77 g/m*3 12.8 C 0 km/h
250 04-09-2010 09:00:00 14.44 C 9.96 g/m*3 14.44 C 0 km/h
Sensor: Nr:Datum:Temp:Abs-Feuchte:Windchill:Wind:
Aussen-T/F 251 04-09-2010 10:00:00 16.3 C 9.49 g/m*3 16.3 C 0 km/h
252 04-09-2010 11:00:00 18.88 C 8.77 g/m*3 18.88 C 0 km/h
253 04-09-2010 12:00:00 18.86 C 7.89 g/m*3 18.86 C 0 km/h
254 04-09-2010 13:00:00 19.58 C 7.62 g/m*3 19.58 C 0 km/h
255 04-09-2010 14:00:00 22.2 C 6.71 g/m*3 22.2 C 0 km/h
256 04-09-2010 15:00:00 22.88 C 6.29 g/m*3 22.88 C 0 km/h
257 04-09-2010 16:00:00 22.42 C 5.53 g/m*3 22.42 C 0 km/h
258 04-09-2010 17:00:00 23.12 C 4.88 g/m*3 23.12 C 0 km/h
259 04-09-2010 18:00:00 22.74 C 4.37 g/m*3 22.74 C 0 km/h
260 04-09-2010 19:00:00 19.74 C 5.55 g/m*3 19.74 C 0 km/h
261 04-09-2010 20:00:00 16.14 C 6.54 g/m*3 16.14 C 0 km/h
262 04-09-2010 21:00:00 14.92 C 6.94 g/m*3 14.92 C 0 km/h
263 04-09-2010 22:00:00 14.16 C 7.26 g/m*3 14.16 C 0 km/h
264 04-09-2010 23:00:00 13.12 C 7.59 g/m*3 13.12 C 0 km/h
265 05-09-2010 00:00:00 12.16 C 7.62 g/m*3 12.16 C 0 km/h
266 05-09-2010 01:00:00 11.22 C 7.53 g/m*3 11.22 C 0 km/h
267 05-09-2010 02:00:00 10.44 C 7.52 g/m*3 10.44 C 0 km/h
268 05-09-2010 03:00:00 9.72 C 7.4 g/m*3 9.72 C 0 km/h
269 05-09-2010 04:00:00 9.12 C 7.27 g/m*3 9.12 C 0 km/h
270 05-09-2010 05:00:00 8.64 C 7.27 g/m*3 8.64 C 0 km/h
271 05-09-2010 06:00:00 8.08 C 7.25 g/m*3 8.08 C 0 km/h
272 05-09-2010 07:00:00 8.4 C 7.52 g/m*3 8.4 C 0 km/h
273 05-09-2010 08:00:00 9.82 C 7.91 g/m*3 9.82 C 0 km/h
274 05-09-2010 09:00:00 11.1 C 7.88 g/m*3 11.1 C 0 km/h
275 05-09-2010 10:00:00 12.36 C 8.44 g/m*3 12.36 C 0 km/h
Sensor: Nr:Datum:Temp:Abs-Feuchte:Windchill:Wind:
Aussen-T/F 276 05-09-2010 11:00:00 15.42 C 8.16 g/m*3 15.42 C 0 km/h
277 05-09-2010 12:00:00 18.02 C 6.52 g/m*3 18.02 C 0 km/h
278 05-09-2010 13:00:00 20.14 C 5.92 g/m*3 20.14 C 0 km/h
279 05-09-2010 14:00:00 23.5 C 5.2 g/m*3 23.5 C 0 km/h
280 05-09-2010 15:00:00 24.16 C 4.83 g/m*3 24.16 C 0 km/h
281 05-09-2010 16:00:00 24.4 C 4.67 g/m*3 24.4 C 0 km/h
282 05-09-2010 17:00:00 24.6 C 5.04 g/m*3 24.6 C 0 km/h
283 05-09-2010 18:00:00 24.84 C 5.29 g/m*3 24.84 C 0 km/h
284 05-09-2010 19:00:00 19.38 C 6.4 g/m*3 19.38 C 0 km/h
285 05-09-2010 20:00:00 16.44 C 6.38 g/m*3 16.44 C 0 km/h
286 05-09-2010 21:00:00 14.9 C 6.81 g/m*3 14.9 C 0 km/h
287 05-09-2010 22:00:00 14.12 C 7.1 g/m*3 14.12 C 0 km/h
288 05-09-2010 23:00:00 13.94 C 6.92 g/m*3 13.94 C 0 km/h
289 06-09-2010 00:00:00 13.22 C 7.08 g/m*3 13.22 C 0 km/h
290 06-09-2010 01:00:00 12.36 C 7.11 g/m*3 12.36 C 0 km/h
291 06-09-2010 02:00:00 11.62 C 7.2 g/m*3 11.62 C 0 km/h
292 06-09-2010 03:00:00 11.1 C 7.15 g/m*3 11.1 C 0 km/h
293 06-09-2010 04:00:00 10.7 C 7.09 g/m*3 10.7 C 0 km/h
294 06-09-2010 05:00:00 10.24 C 7.02 g/m*3 10.24 C 0 km/h
295 06-09-2010 06:00:00 9.56 C 7 g/m*3 9.56 C 0 km/h
296 06-09-2010 07:00:00 9.28 C 7.07 g/m*3 9.28 C 0 km/h
297 06-09-2010 08:00:00 9.68 C 7.22 g/m*3 9.68 C 0 km/h
298 06-09-2010 09:00:00 10.94 C 7.52 g/m*3 10.94 C 0 km/h
299 06-09-2010 10:00:00 13.48 C 7.52 g/m*3 13.48 C 0 km/h
300 06-09-2010 11:00:00 16.32 C 7.14 g/m*3 16.32 C 0 km/h
Sensor: Nr:Datum:Temp:Abs-Feuchte:Windchill:Wind:
Aussen-T/F 301 06-09-2010 12:00:00 18.64 C 5.58 g/m*3 18.64 C 0 km/h
302 06-09-2010 13:00:00 20.24 C 5.4 g/m*3 20.24 C 0 km/h
303 06-09-2010 14:00:00 22.34 C 4.51 g/m*3 22.34 C 0 km/h
304 06-09-2010 15:00:00 24 C 4.35 g/m*3 24 C 0 km/h
305 06-09-2010 16:00:00 23.88 C 4.32 g/m*3 23.88 C 0 km/h
306 06-09-2010 17:00:00 24.42 C 4.46 g/m*3 24.42 C 0 km/h
307 06-09-2010 18:00:00 21.44 C 5.34 g/m*3 21.44 C 0 km/h
308 06-09-2010 19:00:00 18.72 C 5.87 g/m*3 18.72 C 0 km/h
309 06-09-2010 20:00:00 17.1 C 5.62 g/m*3 17.1 C 0 km/h
310 06-09-2010 21:00:00 16.22 C 5.44 g/m*3 16.22 C 0 km/h
311 06-09-2010 22:00:00 15.5 C 5.6 g/m*3 15.5 C 0 km/h
312 06-09-2010 23:00:00 15.2 C 5.63 g/m*3 15.2 C 0 km/h
313 07-09-2010 00:00:00 15.38 C 5.51 g/m*3 15.38 C 0 km/h
314 07-09-2010 01:00:00 15.42 C 5.39 g/m*3 15.42 C 0 km/h
315 07-09-2010 02:00:00 15.46 C 5.38 g/m*3 15.46 C 0 km/h
316 07-09-2010 03:00:00 14.34 C 6.03 g/m*3 14.34 C 0 km/h
317 07-09-2010 04:00:00 13.06 C 7.01 g/m*3 13.06 C 0 km/h
318 07-09-2010 05:00:00 12.98 C 7.11 g/m*3 12.98 C 0 km/h
319 07-09-2010 06:00:00 12.5 C 7.04 g/m*3 12.5 C 0 km/h
320 07-09-2010 07:00:00 12.12 C 7.09 g/m*3 12.12 C 0 km/h
321 07-09-2010 08:00:00 11.56 C 8.11 g/m*3 11.56 C 0 km/h
322 07-09-2010 09:00:00 11.46 C 8.41 g/m*3 11.46 C 0 km/h
323 07-09-2010 10:00:00 11.46 C 8.88 g/m*3 11.46 C 0 km/h
324 07-09-2010 11:00:00 11.64 C 9.21 g/m*3 11.64 C 0 km/h
325 07-09-2010 12:00:00 12.42 C 9.5 g/m*3 12.42 C 0 km/h
Sensor: Nr:Datum:Temp:Abs-Feuchte:Windchill:Wind:
Aussen-T/F 326 07-09-2010 13:00:00 12.78 C 9.31 g/m*3 12.78 C 0 km/h
327 07-09-2010 14:00:00 13.36 C 9.37 g/m*3 13.36 C 0 km/h
328 07-09-2010 15:00:00 14.58 C 9.12 g/m*3 14.58 C 0 km/h
329 07-09-2010 16:00:00 15.52 C 9.11 g/m*3 15.52 C 0 km/h
330 07-09-2010 17:00:00 14.88 C 9.06 g/m*3 14.88 C 0 km/h
331 07-09-2010 18:00:00 13.98 C 9.08 g/m*3 13.98 C 0 km/h
332 07-09-2010 19:00:00 13.78 C 9.38 g/m*3 13.78 C 0 km/h
333 07-09-2010 20:00:00 13.24 C 9.55 g/m*3 13.24 C 0 km/h
334 07-09-2010 21:00:00 12.96 C 9.89 g/m*3 12.96 C 0 km/h
335 07-09-2010 22:00:00 12.86 C 10.03 g/m*3 12.86 C 0 km/h
336 07-09-2010 23:00:00 12.92 C 10.16 g/m*3 12.92 C 0 km/h
337 08-09-2010 00:00:00 12.88 C 10.24 g/m*3 12.88 C 0 km/h
338 08-09-2010 01:00:00 13 C 10.37 g/m*3 13 C 0 km/h
339 08-09-2010 02:00:00 13.2 C 10.61 g/m*3 13.2 C 0 km/h
340 08-09-2010 03:00:00 13.56 C 10.92 g/m*3 13.56 C 0 km/h
341 08-09-2010 04:00:00 13.56 C 10.92 g/m*3 13.56 C 0 km/h
342 08-09-2010 05:00:00 14.16 C 11.4 g/m*3 14.16 C 0 km/h
343 08-09-2010 06:00:00 14.36 C 11.44 g/m*3 14.36 C 0 km/h
344 08-09-2010 07:00:00 14.22 C 11.25 g/m*3 14.22 C 0 km/h
345 08-09-2010 08:00:00 14.22 C 11.25 g/m*3 14.22 C 0 km/h
346 08-09-2010 09:00:00 15.22 C 11.62 g/m*3 15.22 C 0 km/h
347 08-09-2010 10:00:00 15.52 C 11.41 g/m*3 15.52 C 0 km/h
348 08-09-2010 11:00:00 15.24 C 11.03 g/m*3 15.24 C 0 km/h
349 08-09-2010 12:00:00 14.74 C 11.26 g/m*3 14.74 C 0 km/h
350 08-09-2010 13:00:00 16.22 C 12.12 g/m*3 16.22 C 0 km/h
Sensor: Nr:Datum:Temp:Abs-Feuchte:Windchill:Wind:
Aussen-T/F 351 08-09-2010 14:00:00 17.58 C 11.56 g/m*3 17.58 C 0 km/h
352 08-09-2010 15:00:00 17.94 C 11.17 g/m*3 17.94 C 0 km/h
353 08-09-2010 16:00:00 18.54 C 10.69 g/m*3 18.54 C 0 km/h
354 08-09-2010 17:00:00 19.88 C 10.23 g/m*3 19.88 C 0 km/h
355 08-09-2010 18:00:00 19.06 C 10.24 g/m*3 19.06 C 0 km/h
356 08-09-2010 19:00:00 18.2 C 10.54 g/m*3 18.2 C 0 km/h
357 08-09-2010 20:00:00 16.8 C 10.52 g/m*3 16.8 C 0 km/h
358 08-09-2010 21:00:00 15.72 C 9.7 g/m*3 15.72 C 0 km/h
359 08-09-2010 22:00:00 14.78 C 9.79 g/m*3 14.78 C 0 km/h
360 08-09-2010 23:00:00 14.48 C 10.01 g/m*3 14.48 C 0 km/h
361 09-09-2010 00:00:00 14.38 C 10.2 g/m*3 14.38 C 0 km/h
362 09-09-2010 01:00:00 15.04 C 10.08 g/m*3 15.04 C 0 km/h
363 09-09-2010 02:00:00 15.14 C 9.93 g/m*3 15.14 C 0 km/h
364 09-09-2010 03:00:00 15.32 C 9.78 g/m*3 15.32 C 0 km/h
365 09-09-2010 04:00:00 15.22 C 9.33 g/m*3 15.22 C 0 km/h
366 09-09-2010 05:00:00 14.9 C 9.02 g/m*3 14.9 C 0 km/h
367 09-09-2010 06:00:00 14.78 C 8.88 g/m*3 14.78 C 0 km/h
368 09-09-2010 07:00:00 14.58 C 9.07 g/m*3 14.58 C 0 km/h
369 09-09-2010 08:00:00 14.8 C 9.1 g/m*3 14.8 C 0 km/h
370 09-09-2010 09:00:00 15.26 C 9.09 g/m*3 15.26 C 0 km/h
371 09-09-2010 10:00:00 16.76 C 9.1 g/m*3 16.76 C 0 km/h
372 09-09-2010 11:00:00 17.78 C 8.88 g/m*3 17.78 C 0 km/h
373 09-09-2010 12:00:00 18.64 C 8.17 g/m*3 18.64 C 0 km/h
374 09-09-2010 13:00:00 18.8 C 8.21 g/m*3 18.8 C 0 km/h
375 09-09-2010 14:00:00 18.98 C 8.59 g/m*3 18.98 C 0 km/h
Sensor: Nr:Datum:Temp:Abs-Feuchte:Windchill:Wind:
Aussen-T/F 376 09-09-2010 15:00:00 19.38 C 9.13 g/m*3 19.38 C 0 km/h
377 09-09-2010 16:00:00 17.1 C 10.92 g/m*3 17.1 C 0 km/h
378 09-09-2010 17:00:00 17.92 C 11.62 g/m*3 17.92 C 0 km/h
379 09-09-2010 18:00:00 17.7 C 10.47 g/m*3 17.7 C 0 km/h
380 09-09-2010 19:00:00 16.54 C 9.46 g/m*3 16.54 C 0 km/h
381 09-09-2010 20:00:00 15.4 C 9.78 g/m*3 15.4 C 0 km/h
382 09-09-2010 21:00:00 14.8 C 10.26 g/m*3 14.8 C 0 km/h
383 09-09-2010 22:00:00 14.74 C 10.17 g/m*3 14.74 C 0 km/h
384 09-09-2010 23:00:00 14.98 C 9.71 g/m*3 14.98 C 0 km/h
385 10-09-2010 00:00:00 14.66 C 9.92 g/m*3 14.66 C 0 km/h
386 10-09-2010 01:00:00 14 C 9.77 g/m*3 14 C 0 km/h
387 10-09-2010 02:00:00 13.9 C 9.95 g/m*3 13.9 C 0 km/h
388 10-09-2010 03:00:00 13.9 C 10.07 g/m*3 13.9 C 0 km/h
389 10-09-2010 04:00:00 13.84 C 10.25 g/m*3 13.84 C 0 km/h
390 10-09-2010 05:00:00 13.06 C 9.99 g/m*3 13.06 C 0 km/h
391 10-09-2010 06:00:00 13.12 C 10.24 g/m*3 13.12 C 0 km/h
392 10-09-2010 07:00:00 13.18 C 9.84 g/m*3 13.18 C 0 km/h
393 10-09-2010 08:00:00 13.32 C 9.95 g/m*3 13.32 C 0 km/h
394 10-09-2010 09:00:00 14.6 C 9.54 g/m*3 14.6 C 0 km/h
395 10-09-2010 10:00:00 16.16 C 9.35 g/m*3 16.16 C 0 km/h
396 10-09-2010 11:00:00 17.88 C 9.21 g/m*3 17.88 C 0 km/h
397 10-09-2010 12:00:00 18.74 C 9.18 g/m*3 18.74 C 0 km/h
398 10-09-2010 13:00:00 19.18 C 8.66 g/m*3 19.18 C 0 km/h
399 10-09-2010 14:00:00 19.94 C 8.75 g/m*3 19.94 C 0 km/h
400 10-09-2010 15:00:00 20.82 C 8.59 g/m*3 20.82 C 0 km/h
Sensor: Nr:Datum:Temp:Abs-Feuchte:Windchill:Wind:
Aussen-T/F 401 10-09-2010 16:00:00 21.1 C 8.44 g/m*3 21.1 C 0 km/h
402 10-09-2010 17:00:00 20.18 C 8.98 g/m*3 20.18 C 0 km/h
403 10-09-2010 18:00:00 17.86 C 10.21 g/m*3 17.86 C 0 km/h
404 10-09-2010 19:00:00 16.26 C 11.43 g/m*3 16.26 C 0 km/h
405 10-09-2010 20:00:00 15.68 C 11.57 g/m*3 15.68 C 0 km/h
406 10-09-2010 21:00:00 15.8 C 11.68 g/m*3 15.8 C 0 km/h
407 10-09-2010 22:00:00 15.68 C 11.44 g/m*3 15.68 C 0 km/h
408 10-09-2010 23:00:00 15.46 C 11.18 g/m*3 15.46 C 0 km/h
409 11-09-2010 00:00:00 15.14 C 10.86 g/m*3 15.14 C 0 km/h
410 11-09-2010 01:00:00 15 C 10.8 g/m*3 15 C 0 km/h
411 11-09-2010 02:00:00 14.74 C 10.73 g/m*3 14.74 C 0 km/h
412 11-09-2010 03:00:00 14.08 C 10.42 g/m*3 14.08 C 0 km/h
413 11-09-2010 04:00:00 13.14 C 9.86 g/m*3 13.14 C 0 km/h
414 11-09-2010 05:00:00 12.64 C 9.78 g/m*3 12.64 C 0 km/h
415 11-09-2010 06:00:00 12.74 C 9.91 g/m*3 12.74 C 0 km/h
416 11-09-2010 07:00:00 12.16 C 9.54 g/m*3 12.16 C 0 km/h
417 11-09-2010 08:00:00 13.04 C 10.23 g/m*3 13.04 C 0 km/h
418 11-09-2010 09:00:00 13.76 C 10.55 g/m*3 13.76 C 0 km/h
419 11-09-2010 10:00:00 15.66 C 11.32 g/m*3 15.66 C 0 km/h
420 11-09-2010 11:00:00 18.24 C 11.37 g/m*3 18.24 C 0 km/h
421 11-09-2010 12:00:00 19.9 C 9.59 g/m*3 19.9 C 0 km/h
422 11-09-2010 13:00:00 21.76 C 8.81 g/m*3 21.76 C 0 km/h
423 11-09-2010 14:00:00 24.2 C 8.14 g/m*3 24.2 C 0 km/h
424 11-09-2010 15:00:00 26.04 C 7.86 g/m*3 26.04 C 0 km/h
425 11-09-2010 16:00:00 26.34 C 8.19 g/m*3 26.34 C 0 km/h
Sensor: Nr:Datum:Temp:Abs-Feuchte:Windchill:Wind:
Aussen-T/F 426 11-09-2010 17:00:00 27.62 C 8.31 g/m*3 27.62 C 0 km/h
427 11-09-2010 18:00:00 26.06 C 9.28 g/m*3 26.06 C 0 km/h
428 11-09-2010 19:00:00 21.76 C 9.72 g/m*3 21.76 C 0 km/h
429 11-09-2010 20:00:00 19.34 C 9.51 g/m*3 19.34 C 0 km/h
430 11-09-2010 21:00:00 18.1 C 10.01 g/m*3 18.1 C 0 km/h
431 11-09-2010 22:00:00 17.2 C 10.28 g/m*3 17.2 C 0 km/h
432 11-09-2010 23:00:00 16.56 C 10.4 g/m*3 16.56 C 0 km/h
433 12-09-2010 00:00:00 16.06 C 10.42 g/m*3 16.06 C 0 km/h
434 12-09-2010 01:00:00 15.34 C 10.34 g/m*3 15.34 C 0 km/h
435 12-09-2010 02:00:00 14.88 C 10.39 g/m*3 14.88 C 0 km/h
436 12-09-2010 03:00:00 14.46 C 10.2 g/m*3 14.46 C 0 km/h
437 12-09-2010 04:00:00 14.1 C 10.07 g/m*3 14.1 C 0 km/h
438 12-09-2010 05:00:00 13.76 C 9.98 g/m*3 13.76 C 0 km/h
439 12-09-2010 06:00:00 13.52 C 9.93 g/m*3 13.52 C 0 km/h
440 12-09-2010 07:00:00 13.7 C 10.14 g/m*3 13.7 C 0 km/h
441 12-09-2010 08:00:00 14.26 C 10.3 g/m*3 14.26 C 0 km/h
442 12-09-2010 09:00:00 14.84 C 10.51 g/m*3 14.84 C 0 km/h
443 12-09-2010 10:00:00 16.94 C 11.16 g/m*3 16.94 C 0 km/h
444 12-09-2010 11:00:00 20.02 C 10.69 g/m*3 20.02 C 0 km/h
445 12-09-2010 12:00:00 21.62 C 10.75 g/m*3 21.62 C 0 km/h
446 12-09-2010 13:00:00 24.4 C 9.84 g/m*3 24.4 C 0 km/h
447 12-09-2010 14:00:00 23.86 C 9.2 g/m*3 23.86 C 0 km/h
448 12-09-2010 15:00:00 19.32 C 8.87 g/m*3 19.32 C 0 km/h
449 12-09-2010 16:00:00 17.78 C 9.19 g/m*3 17.78 C 0 km/h
450 12-09-2010 17:00:00 16.2 C 9.68 g/m*3 16.2 C 0 km/h
Sensor: Nr:Datum:Temp:Abs-Feuchte:Windchill:Wind:
Aussen-T/F 451 12-09-2010 18:00:00 14.92 C 10.59 g/m*3 14.92 C 0 km/h
452 12-09-2010 19:00:00 14.26 C 10.79 g/m*3 14.26 C 0 km/h
453 12-09-2010 20:00:00 13.82 C 10.81 g/m*3 13.82 C 0 km/h
454 12-09-2010 21:00:00 13.78 C 10.97 g/m*3 13.78 C 0 km/h
455 12-09-2010 22:00:00 13.78 C 11.07 g/m*3 13.78 C 0 km/h
456 12-09-2010 23:00:00 13.58 C 10.93 g/m*3 13.58 C 0 km/h
457 13-09-2010 00:00:00 13.68 C 11 g/m*3 13.68 C 0 km/h
458 13-09-2010 01:00:00 13.7 C 11.01 g/m*3 13.7 C 0 km/h
459 13-09-2010 02:00:00 13.52 C 10.89 g/m*3 13.52 C 0 km/h
460 13-09-2010 03:00:00 13.26 C 10.58 g/m*3 13.26 C 0 km/h
461 13-09-2010 04:00:00 13 C 10.21 g/m*3 13 C 0 km/h
462 13-09-2010 05:00:00 13.26 C 9.77 g/m*3 13.26 C 0 km/h
463 13-09-2010 06:00:00 13.3 C 9.57 g/m*3 13.3 C 0 km/h
464 13-09-2010 07:00:00 12.72 C 9.18 g/m*3 12.72 C 0 km/h
465 13-09-2010 08:00:00 13.04 C 9.62 g/m*3 13.04 C 0 km/h
466 13-09-2010 09:00:00 13.98 C 9.47 g/m*3 13.98 C 0 km/h
467 13-09-2010 10:00:00 15.32 C 9.05 g/m*3 15.32 C 0 km/h
468 13-09-2010 11:00:00 16.5 C 8.57 g/m*3 16.5 C 0 km/h
469 13-09-2010 12:00:00 17.24 C 7.93 g/m*3 17.24 C 0 km/h
470 13-09-2010 13:00:00 18.94 C 7.53 g/m*3 18.94 C 0 km/h
471 13-09-2010 14:00:00 20.18 C 6.95 g/m*3 20.18 C 0 km/h
472 13-09-2010 15:00:00 20.8 C 7.1 g/m*3 20.8 C 0 km/h
473 13-09-2010 16:00:00 21.56 C 6.93 g/m*3 21.56 C 0 km/h
474 13-09-2010 17:00:00 20.48 C 7.96 g/m*3 20.48 C 0 km/h
475 13-09-2010 18:00:00 18.22 C 8.62 g/m*3 18.22 C 0 km/h
Sensor: Nr:Datum:Temp:Abs-Feuchte:Windchill:Wind:
Aussen-T/F 476 13-09-2010 19:00:00 16.92 C 8.55 g/m*3 16.92 C 0 km/h
477 13-09-2010 20:00:00 15.24 C 8.9 g/m*3 15.24 C 0 km/h
478 13-09-2010 21:00:00 14.52 C 8.97 g/m*3 14.52 C 0 km/h
479 13-09-2010 22:00:00 13.7 C 8.86 g/m*3 13.7 C 0 km/h
480 13-09-2010 23:00:00 13.14 C 8.85 g/m*3 13.14 C 0 km/h
481 14-09-2010 00:00:00 12.82 C 9.2 g/m*3 12.82 C 0 km/h
482 14-09-2010 01:00:00 12.8 C 9.27 g/m*3 12.8 C 0 km/h
483 14-09-2010 02:00:00 13.1 C 9.33 g/m*3 13.1 C 0 km/h
484 14-09-2010 03:00:00 13.36 C 9.23 g/m*3 13.36 C 0 km/h
485 14-09-2010 04:00:00 12.94 C 9.42 g/m*3 12.94 C 0 km/h
486 14-09-2010 05:00:00 12.96 C 9.84 g/m*3 12.96 C 0 km/h
487 14-09-2010 06:00:00 13.9 C 9.28 g/m*3 13.9 C 0 km/h
488 14-09-2010 07:00:00 14.06 C 8.93 g/m*3 14.06 C 0 km/h
489 14-09-2010 08:00:00 14.1 C 9.32 g/m*3 14.1 C 0 km/h
490 14-09-2010 09:00:00 15.16 C 9.06 g/m*3 15.16 C 0 km/h
491 14-09-2010 10:00:00 16.1 C 9.07 g/m*3 16.1 C 0 km/h
492 14-09-2010 11:00:00 17.06 C 9.15 g/m*3 17.06 C 0 km/h
493 14-09-2010 12:00:00 18.44 C 9.18 g/m*3 18.44 C 0 km/h
494 14-09-2010 13:00:00 19.98 C 9.22 g/m*3 19.98 C 0 km/h
495 14-09-2010 14:00:00 19.66 C 8.84 g/m*3 19.66 C 0 km/h
496 14-09-2010 15:00:00 20.4 C 8.63 g/m*3 20.4 C 0 km/h
497 14-09-2010 16:00:00 20.68 C 7.88 g/m*3 20.68 C 0 km/h
498 14-09-2010 17:00:00 20.14 C 7.46 g/m*3 20.14 C 0 km/h
499 14-09-2010 18:00:00 19.34 C 7.81 g/m*3 19.34 C 0 km/h
500 14-09-2010 19:00:00 18.8 C 7.73 g/m*3 18.8 C 0 km/h
Sensor: Nr:Datum:Temp:Abs-Feuchte:Windchill:Wind:
Aussen-T/F 501 14-09-2010 20:00:00 18.6 C 7.7 g/m*3 18.6 C 0 km/h
502 14-09-2010 21:00:00 18.54 C 7.77 g/m*3 18.54 C 0 km/h
503 14-09-2010 22:00:00 18.5 C 7.83 g/m*3 18.5 C 0 km/h
504 14-09-2010 23:00:00 18.22 C 7.91 g/m*3 18.22 C 0 km/h
505 15-09-2010 00:00:00 18.02 C 7.87 g/m*3 18.02 C 0 km/h
506 15-09-2010 01:00:00 18.18 C 7.67 g/m*3 18.18 C 0 km/h
507 15-09-2010 02:00:00 18.32 C 7.64 g/m*3 18.32 C 0 km/h
508 15-09-2010 03:00:00 18.06 C 8.23 g/m*3 18.06 C 0 km/h
509 15-09-2010 04:00:00 17.7 C 9.11 g/m*3 17.7 C 0 km/h
510 15-09-2010 05:00:00 15 C 9.75 g/m*3 15 C 0 km/h
511 15-09-2010 06:00:00 12.78 C 10.09 g/m*3 12.78 C 0 km/h
512 15-09-2010 07:00:00 12.74 C 10.29 g/m*3 12.74 C 0 km/h
513 15-09-2010 08:00:00 12.7 C 10.35 g/m*3 12.7 C 0 km/h
514 15-09-2010 09:00:00 12.92 C 10.36 g/m*3 12.92 C 0 km/h
515 15-09-2010 10:00:00 14.06 C 9.95 g/m*3 14.06 C 0 km/h
516 15-09-2010 11:00:00 15.02 C 8.86 g/m*3 15.02 C 0 km/h
517 15-09-2010 12:00:00 16.5 C 7.02 g/m*3 16.5 C 0 km/h
518 15-09-2010 13:00:00 17.24 C 6.31 g/m*3 17.24 C 0 km/h
519 15-09-2010 14:00:00 18.38 C 5.66 g/m*3 18.38 C 0 km/h
520 15-09-2010 15:00:00 19.52 C 5.75 g/m*3 19.52 C 0 km/h
521 15-09-2010 16:00:00 19.52 C 5.98 g/m*3 19.52 C 0 km/h
522 15-09-2010 17:00:00 19.68 C 5.8 g/m*3 19.68 C 0 km/h
523 15-09-2010 18:00:00 17.84 C 5.32 g/m*3 17.84 C 0 km/h
524 15-09-2010 19:00:00 16.6 C 5.65 g/m*3 16.6 C 0 km/h
525 15-09-2010 20:00:00 15.84 C 6.26 g/m*3 15.84 C 0 km/h
Sensor: Nr:Datum:Temp:Abs-Feuchte:Windchill:Wind:
Aussen-T/F 526 15-09-2010 21:00:00 15.18 C 6.38 g/m*3 15.18 C 0 km/h
527 15-09-2010 22:00:00 14.96 C 5.96 g/m*3 14.96 C 0 km/h
528 15-09-2010 23:00:00 14.86 C 5.64 g/m*3 14.86 C 0 km/h
529 16-09-2010 00:00:00 14.18 C 5.9 g/m*3 14.18 C 0 km/h
530 16-09-2010 01:00:00 14.1 C 5.41 g/m*3 14.1 C 0 km/h
531 16-09-2010 02:00:00 13.94 C 5.79 g/m*3 13.94 C 0 km/h
532 16-09-2010 03:00:00 13.84 C 6.71 g/m*3 13.84 C 0 km/h
533 16-09-2010 04:00:00 13.58 C 6.98 g/m*3 13.58 C 0 km/h
534 16-09-2010 05:00:00 13.36 C 7.26 g/m*3 13.36 C 0 km/h
535 16-09-2010 06:00:00 12.44 C 8.08 g/m*3 12.44 C 0 km/h
536 16-09-2010 07:00:00 11.78 C 8.68 g/m*3 11.78 C 0 km/h
537 16-09-2010 08:00:00 11.86 C 8.83 g/m*3 11.86 C 0 km/h
538 16-09-2010 09:00:00 12.64 C 9.25 g/m*3 12.64 C 0 km/h
539 16-09-2010 10:00:00 14.12 C 8.65 g/m*3 14.12 C 0 km/h
540 16-09-2010 11:00:00 15.26 C 8.23 g/m*3 15.26 C 0 km/h
541 16-09-2010 12:00:00 17.02 C 7.68 g/m*3 17.02 C 0 km/h
542 16-09-2010 13:00:00 17.32 C 7.17 g/m*3 17.32 C 0 km/h
543 16-09-2010 14:00:00 15.28 C 8.71 g/m*3 15.28 C 0 km/h
544 16-09-2010 15:00:00 17.22 C 9.15 g/m*3 17.22 C 0 km/h
545 16-09-2010 16:00:00 16.36 C 8.49 g/m*3 16.36 C 0 km/h
546 16-09-2010 17:00:00 15.3 C 9.51 g/m*3 15.3 C 0 km/h
547 16-09-2010 18:00:00 14.9 C 8.95 g/m*3 14.9 C 0 km/h
548 16-09-2010 19:00:00 13.42 C 9.68 g/m*3 13.42 C 0 km/h
549 16-09-2010 20:00:00 12.84 C 10.02 g/m*3 12.84 C 0 km/h
550 16-09-2010 21:00:00 12.62 C 10.08 g/m*3 12.62 C 0 km/h
Sensor: Nr:Datum:Temp:Abs-Feuchte:Windchill:Wind:
Aussen-T/F 551 16-09-2010 22:00:00 12.2 C 9.58 g/m*3 12.2 C 0 km/h
552 16-09-2010 23:00:00 12.1 C 9.29 g/m*3 12.1 C 0 km/h
553 17-09-2010 00:00:00 12.16 C 9.24 g/m*3 12.16 C 0 km/h
554 17-09-2010 01:00:00 12.06 C 9.26 g/m*3 12.06 C 0 km/h
555 17-09-2010 02:00:00 11.96 C 9.29 g/m*3 11.96 C 0 km/h
556 17-09-2010 03:00:00 12.06 C 8.94 g/m*3 12.06 C 0 km/h
557 17-09-2010 04:00:00 11.94 C 8.73 g/m*3 11.94 C 0 km/h
558 17-09-2010 05:00:00 11.2 C 8.23 g/m*3 11.2 C 0 km/h
559 17-09-2010 06:00:00 10.6 C 8.59 g/m*3 10.6 C 0 km/h
560 17-09-2010 07:00:00 10.02 C 8.15 g/m*3 10.02 C 0 km/h
561 17-09-2010 08:00:00 10.22 C 7.66 g/m*3 10.22 C 0 km/h
562 17-09-2010 09:00:00 10.86 C 7.28 g/m*3 10.86 C 0 km/h
563 17-09-2010 10:00:00 12.06 C 7.55 g/m*3 12.06 C 0 km/h
564 17-09-2010 11:00:00 13.72 C 7.56 g/m*3 13.72 C 0 km/h
565 17-09-2010 12:00:00 15.7 C 6.58 g/m*3 15.7 C 0 km/h
566 17-09-2010 13:00:00 16.66 C 5.9 g/m*3 16.66 C 0 km/h
567 17-09-2010 14:00:00 17.62 C 5.29 g/m*3 17.62 C 0 km/h
568 17-09-2010 15:00:00 17.48 C 5.06 g/m*3 17.48 C 0 km/h
569 17-09-2010 16:00:00 19.06 C 4.94 g/m*3 19.06 C 0 km/h
570 17-09-2010 17:00:00 19.46 C 4.45 g/m*3 19.46 C 0 km/h
571 17-09-2010 18:00:00 16.66 C 6.1 g/m*3 16.66 C 0 km/h
572 17-09-2010 19:00:00 15.24 C 6.69 g/m*3 15.24 C 0 km/h
573 17-09-2010 20:00:00 14.26 C 7.06 g/m*3 14.26 C 0 km/h
574 17-09-2010 21:00:00 13.48 C 7.15 g/m*3 13.48 C 0 km/h
575 17-09-2010 22:00:00 13.34 C 6.72 g/m*3 13.34 C 0 km/h
Sensor: Nr:Datum:Temp:Abs-Feuchte:Windchill:Wind:
Aussen-T/F 576 17-09-2010 23:00:00 12.58 C 6.81 g/m*3 12.58 C 0 km/h
577 18-09-2010 00:00:00 12.12 C 6.94 g/m*3 12.12 C 0 km/h
578 18-09-2010 01:00:00 10.9 C 7 g/m*3 10.9 C 0 km/h
579 18-09-2010 02:00:00 10 C 7.2 g/m*3 10 C 0 km/h
580 18-09-2010 03:00:00 9.38 C 7.3 g/m*3 9.38 C 0 km/h
581 18-09-2010 04:00:00 8.54 C 7.19 g/m*3 8.54 C 0 km/h
582 18-09-2010 05:00:00 7.94 C 7.18 g/m*3 7.94 C 0 km/h
583 18-09-2010 06:00:00 7.62 C 7.36 g/m*3 7.62 C 0 km/h
584 18-09-2010 07:00:00 7.5 C 7.3 g/m*3 7.5 C 0 km/h
585 18-09-2010 08:00:00 7.46 C 7.23 g/m*3 7.46 C 0 km/h
586 18-09-2010 09:00:00 8.12 C 7.55 g/m*3 8.12 C 0 km/h
587 18-09-2010 10:00:00 10.2 C 8.18 g/m*3 10.2 C 0 km/h
588 18-09-2010 11:00:00 13.46 C 6.65 g/m*3 13.46 C 0 km/h
589 18-09-2010 12:00:00 15.14 C 5.92 g/m*3 15.14 C 0 km/h
590 18-09-2010 13:00:00 15.6 C 5.43 g/m*3 15.6 C 0 km/h
591 18-09-2010 14:00:00 15.26 C 4.77 g/m*3 15.26 C 0 km/h
592 18-09-2010 15:00:00 16.3 C 4.58 g/m*3 16.3 C 0 km/h
593 18-09-2010 16:00:00 16.22 C 4.86 g/m*3 16.22 C 0 km/h
594 18-09-2010 17:00:00 15.86 C 5.73 g/m*3 15.86 C 0 km/h
595 18-09-2010 18:00:00 15.66 C 6.06 g/m*3 15.66 C 0 km/h
596 18-09-2010 19:00:00 13.26 C 6.08 g/m*3 13.26 C 0 km/h
597 18-09-2010 20:00:00 11.08 C 6.6 g/m*3 11.08 C 0 km/h
598 18-09-2010 21:00:00 10.02 C 6.62 g/m*3 10.02 C 0 km/h
599 18-09-2010 22:00:00 8.98 C 6.69 g/m*3 8.98 C 0 km/h
600 18-09-2010 23:00:00 8.2 C 6.77 g/m*3 8.2 C 0 km/h
Sensor: Nr:Datum:Temp:Abs-Feuchte:Windchill:Wind:
Aussen-T/F 601 19-09-2010 00:00:00 7.56 C 6.72 g/m*3 7.56 C 0 km/h
602 19-09-2010 01:00:00 6.92 C 6.54 g/m*3 6.92 C 0 km/h
603 19-09-2010 02:00:00 6.44 C 6.53 g/m*3 6.44 C 0 km/h
604 19-09-2010 03:00:00 6.42 C 6.57 g/m*3 6.42 C 0 km/h
605 19-09-2010 04:00:00 6.2 C 6.5 g/m*3 6.2 C 0 km/h
606 19-09-2010 05:00:00 6.04 C 6.42 g/m*3 6.04 C 0 km/h
607 19-09-2010 06:00:00 5.76 C 6.33 g/m*3 5.76 C 0 km/h
608 19-09-2010 07:00:00 6 C 6.46 g/m*3 6 C 0 km/h
609 19-09-2010 08:00:00 6.96 C 6.79 g/m*3 6.96 C 0 km/h
610 19-09-2010 09:00:00 8.12 C 6.98 g/m*3 8.12 C 0 km/h
611 19-09-2010 10:00:00 10.72 C 6.69 g/m*3 10.72 C 0 km/h
612 19-09-2010 11:00:00 12.92 C 6.27 g/m*3 12.92 C 0 km/h
613 19-09-2010 12:00:00 14.94 C 5.67 g/m*3 14.94 C 0 km/h
614 19-09-2010 13:00:00 16.12 C 5.54 g/m*3 16.12 C 0 km/h
615 19-09-2010 14:00:00 17.38 C 5.68 g/m*3 17.38 C 0 km/h
616 19-09-2010 15:00:00 18.62 C 5.45 g/m*3 18.62 C 0 km/h
617 19-09-2010 16:00:00 19.04 C 5.29 g/m*3 19.04 C 0 km/h
618 19-09-2010 17:00:00 18.78 C 5.69 g/m*3 18.78 C 0 km/h
619 19-09-2010 18:00:00 17.08 C 5.99 g/m*3 17.08 C 0 km/h
620 19-09-2010 19:00:00 15.78 C 5.97 g/m*3 15.78 C 0 km/h
621 19-09-2010 20:00:00 14.46 C 6.3 g/m*3 14.46 C 0 km/h
622 19-09-2010 21:00:00 13.96 C 6.62 g/m*3 13.96 C 0 km/h
623 19-09-2010 22:00:00 13.32 C 6.78 g/m*3 13.32 C 0 km/h
624 19-09-2010 23:00:00 12.28 C 6.77 g/m*3 12.28 C 0 km/h
625 20-09-2010 00:00:00 11.68 C 6.87 g/m*3 11.68 C 0 km/h
Sensor: Nr:Datum:Temp:Abs-Feuchte:Windchill:Wind:
Aussen-T/F 626 20-09-2010 01:00:00 10.44 C 6.78 g/m*3 10.44 C 0 km/h
627 20-09-2010 02:00:00 9.84 C 6.88 g/m*3 9.84 C 0 km/h
628 20-09-2010 03:00:00 9.64 C 7.02 g/m*3 9.64 C 0 km/h
629 20-09-2010 04:00:00 8.98 C 6.89 g/m*3 8.98 C 0 km/h
630 20-09-2010 05:00:00 8.32 C 6.89 g/m*3 8.32 C 0 km/h
631 20-09-2010 06:00:00 8.48 C 7.03 g/m*3 8.48 C 0 km/h
632 20-09-2010 07:00:00 8.52 C 7.1 g/m*3 8.52 C 0 km/h
633 20-09-2010 08:00:00 9.18 C 6.87 g/m*3 9.18 C 0 km/h
634 20-09-2010 09:00:00 9.84 C 6.92 g/m*3 9.84 C 0 km/h
635 20-09-2010 10:00:00 12.4 C 7.21 g/m*3 12.4 C 0 km/h
636 20-09-2010 11:00:00 14.62 C 6.99 g/m*3 14.62 C 0 km/h
637 20-09-2010 12:00:00 16.26 C 6.34 g/m*3 16.26 C 0 km/h
638 20-09-2010 13:00:00 18.02 C 6.12 g/m*3 18.02 C 0 km/h
639 20-09-2010 14:00:00 20.02 C 5.81 g/m*3 20.02 C 0 km/h
640 20-09-2010 15:00:00 21.42 C 5.86 g/m*3 21.42 C 0 km/h
641 20-09-2010 16:00:00 22.46 C 6.22 g/m*3 22.46 C 0 km/h
642 20-09-2010 17:00:00 22.28 C 6.11 g/m*3 22.28 C 0 km/h
643 20-09-2010 18:00:00 21.3 C 6.67 g/m*3 21.3 C 0 km/h
644 20-09-2010 19:00:00 17.5 C 7.19 g/m*3 17.5 C 0 km/h
645 20-09-2010 20:00:00 15.34 C 7.54 g/m*3 15.34 C 0 km/h
646 20-09-2010 21:00:00 14.2 C 7.72 g/m*3 14.2 C 0 km/h
647 20-09-2010 22:00:00 13.22 C 8.07 g/m*3 13.22 C 0 km/h
648 20-09-2010 23:00:00 12.28 C 8.05 g/m*3 12.28 C 0 km/h
649 21-09-2010 00:00:00 11.52 C 7.88 g/m*3 11.52 C 0 km/h
650 21-09-2010 01:00:00 10.9 C 7.8 g/m*3 10.9 C 0 km/h
Sensor: Nr:Datum:Temp:Abs-Feuchte:Windchill:Wind:
Aussen-T/F 651 21-09-2010 02:00:00 10.24 C 7.69 g/m*3 10.24 C 0 km/h
652 21-09-2010 03:00:00 9.74 C 7.71 g/m*3 9.74 C 0 km/h
653 21-09-2010 04:00:00 9.22 C 7.51 g/m*3 9.22 C 0 km/h
654 21-09-2010 05:00:00 8.78 C 7.46 g/m*3 8.78 C 0 km/h
655 21-09-2010 06:00:00 8.34 C 7.37 g/m*3 8.34 C 0 km/h
656 21-09-2010 07:00:00 8.14 C 7.34 g/m*3 8.14 C 0 km/h
657 21-09-2010 08:00:00 8.26 C 7.53 g/m*3 8.26 C 0 km/h
658 21-09-2010 09:00:00 9.18 C 7.97 g/m*3 9.18 C 0 km/h
659 21-09-2010 10:00:00 11.12 C 8.71 g/m*3 11.12 C 0 km/h
660 21-09-2010 11:00:00 14.12 C 8.65 g/m*3 14.12 C 0 km/h
661 21-09-2010 12:00:00 16.14 C 8.99 g/m*3 16.14 C 0 km/h
662 21-09-2010 13:00:00 17.02 C 9.65 g/m*3 17.02 C 0 km/h
663 21-09-2010 14:00:00 17.82 C 9.48 g/m*3 17.82 C 0 km/h
664 21-09-2010 15:00:00 23.12 C 8.2 g/m*3 23.12 C 0 km/h
665 21-09-2010 16:00:00 25.16 C 7.62 g/m*3 25.16 C 0 km/h
666 21-09-2010 17:00:00 24.6 C 7.56 g/m*3 24.6 C 0 km/h
667 21-09-2010 18:00:00 22.18 C 7.88 g/m*3 22.18 C 0 km/h
668 21-09-2010 19:00:00 18.64 C 8.36 g/m*3 18.64 C 0 km/h
669 21-09-2010 20:00:00 16.3 C 8.52 g/m*3 16.3 C 0 km/h
670 21-09-2010 21:00:00 15.06 C 8.49 g/m*3 15.06 C 0 km/h
671 21-09-2010 22:00:00 13.9 C 8.51 g/m*3 13.9 C 0 km/h
672 21-09-2010 23:00:00 12.98 C 8.54 g/m*3 12.98 C 0 km/h
673 22-09-2010 00:00:00 12.2 C 8.55 g/m*3 12.2 C 0 km/h
674 22-09-2010 01:00:00 11.5 C 8.41 g/m*3 11.5 C 0 km/h
675 22-09-2010 02:00:00 10.78 C 8.15 g/m*3 10.78 C 0 km/h
Sensor: Nr:Datum:Temp:Abs-Feuchte:Windchill:Wind:
Aussen-T/F 676 22-09-2010 03:00:00 10.22 C 8 g/m*3 10.22 C 0 km/h
677 22-09-2010 04:00:00 9.72 C 7.94 g/m*3 9.72 C 0 km/h
678 22-09-2010 05:00:00 9.84 C 8.15 g/m*3 9.84 C 0 km/h
679 22-09-2010 06:00:00 9.78 C 8.15 g/m*3 9.78 C 0 km/h
680 22-09-2010 07:00:00 9.56 C 8.04 g/m*3 9.56 C 0 km/h
681 22-09-2010 08:00:00 9.36 C 7.96 g/m*3 9.36 C 0 km/h
682 22-09-2010 09:00:00 10.18 C 8.15 g/m*3 10.18 C 0 km/h
683 22-09-2010 10:00:00 12.42 C 8.64 g/m*3 12.42 C 0 km/h
684 22-09-2010 11:00:00 13.78 C 9.19 g/m*3 13.78 C 0 km/h
685 22-09-2010 12:00:00 16.54 C 9.97 g/m*3 16.54 C 0 km/h
686 22-09-2010 13:00:00 19.76 C 10.09 g/m*3 19.76 C 0 km/h
687 22-09-2010 14:00:00 22.86 C 10.07 g/m*3 22.86 C 0 km/h
688 22-09-2010 15:00:00 25.06 C 9.29 g/m*3 25.06 C 0 km/h
689 22-09-2010 16:00:00 27.32 C 8.59 g/m*3 27.32 C 0 km/h
690 22-09-2010 17:00:00 27.06 C 8.16 g/m*3 27.06 C 0 km/h
691 22-09-2010 18:00:00 24.88 C 9.1 g/m*3 24.88 C 0 km/h
692 22-09-2010 19:00:00 20.88 C 9.2 g/m*3 20.88 C 0 km/h
693 22-09-2010 20:00:00 18.54 C 9.1 g/m*3 18.54 C 0 km/h
694 22-09-2010 21:00:00 17.46 C 9.31 g/m*3 17.46 C 0 km/h
695 22-09-2010 22:00:00 16.18 C 9.26 g/m*3 16.18 C 0 km/h
696 22-09-2010 23:00:00 14.92 C 8.78 g/m*3 14.92 C 0 km/h
697 23-09-2010 00:00:00 14.02 C 8.65 g/m*3 14.02 C 0 km/h
698 23-09-2010 01:00:00 13.22 C 8.71 g/m*3 13.22 C 0 km/h
699 23-09-2010 02:00:00 12.44 C 8.7 g/m*3 12.44 C 0 km/h
700 23-09-2010 03:00:00 11.8 C 8.57 g/m*3 11.8 C 0 km/h
Sensor: Nr:Datum:Temp:Abs-Feuchte:Windchill:Wind:
Aussen-T/F 701 23-09-2010 04:00:00 11.16 C 8.39 g/m*3 11.16 C 0 km/h
702 23-09-2010 05:00:00 10.64 C 8.22 g/m*3 10.64 C 0 km/h
703 23-09-2010 06:00:00 10.46 C 8.2 g/m*3 10.46 C 0 km/h
704 23-09-2010 07:00:00 10.52 C 8.25 g/m*3 10.52 C 0 km/h
705 23-09-2010 08:00:00 10.88 C 8.42 g/m*3 10.88 C 0 km/h
706 23-09-2010 09:00:00 11.64 C 8.65 g/m*3 11.64 C 0 km/h
707 23-09-2010 10:00:00 12.98 C 9.24 g/m*3 12.98 C 0 km/h
708 23-09-2010 11:00:00 15.64 C 10.08 g/m*3 15.64 C 0 km/h
709 23-09-2010 12:00:00 18.66 C 10.61 g/m*3 18.66 C 0 km/h
710 23-09-2010 13:00:00 22.3 C 10.7 g/m*3 22.3 C 0 km/h
711 23-09-2010 14:00:00 24.06 C 10.22 g/m*3 24.06 C 0 km/h
712 23-09-2010 15:00:00 25.04 C 9.37 g/m*3 25.04 C 0 km/h
713 23-09-2010 16:00:00 25.14 C 9.88 g/m*3 25.14 C 0 km/h
714 23-09-2010 17:00:00 23.48 C 10.73 g/m*3 23.48 C 0 km/h
715 23-09-2010 18:00:00 22.12 C 10.63 g/m*3 22.12 C 0 km/h
716 23-09-2010 19:00:00 19.9 C 11.06 g/m*3 19.9 C 0 km/h
717 23-09-2010 20:00:00 18.5 C 11.3 g/m*3 18.5 C 0 km/h
718 23-09-2010 21:00:00 18.5 C 11.49 g/m*3 18.5 C 0 km/h
719 23-09-2010 22:00:00 17.94 C 11.82 g/m*3 17.94 C 0 km/h
720 23-09-2010 23:00:00 16.44 C 12.26 g/m*3 16.44 C 0 km/h
721 24-09-2010 00:00:00 15.7 C 12.18 g/m*3 15.7 C 0 km/h
722 24-09-2010 01:00:00 15.54 C 12.3 g/m*3 15.54 C 0 km/h
723 24-09-2010 02:00:00 15.38 C 12.15 g/m*3 15.38 C 0 km/h
724 24-09-2010 03:00:00 14.94 C 11.91 g/m*3 14.94 C 0 km/h
725 24-09-2010 04:00:00 14.78 C 11.89 g/m*3 14.78 C 0 km/h
Sensor: Nr:Datum:Temp:Abs-Feuchte:Windchill:Wind:
Aussen-T/F 726 24-09-2010 05:00:00 14.54 C 11.72 g/m*3 14.54 C 0 km/h
727 24-09-2010 06:00:00 14.7 C 11.83 g/m*3 14.7 C 0 km/h
728 24-09-2010 07:00:00 14.4 C 11.62 g/m*3 14.4 C 0 km/h
729 24-09-2010 08:00:00 14.58 C 11.82 g/m*3 14.58 C 0 km/h
730 24-09-2010 09:00:00 14.88 C 12.07 g/m*3 14.88 C 0 km/h
731 24-09-2010 10:00:00 14.98 C 12.06 g/m*3 14.98 C 0 km/h
732 24-09-2010 11:00:00 15.22 C 12.22 g/m*3 15.22 C 0 km/h
733 24-09-2010 12:00:00 15.14 C 12.18 g/m*3 15.14 C 0 km/h
734 24-09-2010 13:00:00 14.56 C 11.73 g/m*3 14.56 C 0 km/h
735 24-09-2010 14:00:00 13.54 C 11.02 g/m*3 13.54 C 0 km/h
736 24-09-2010 15:00:00 13.08 C 10.8 g/m*3 13.08 C 0 km/h
737 24-09-2010 16:00:00 13.8 C 11.32 g/m*3 13.8 C 0 km/h
738 24-09-2010 17:00:00 13.48 C 11.03 g/m*3 13.48 C 0 km/h
739 24-09-2010 18:00:00 13.26 C 10.83 g/m*3 13.26 C 0 km/h
740 24-09-2010 19:00:00 12.84 C 10.64 g/m*3 12.84 C 0 km/h
741 24-09-2010 20:00:00 12.7 C 10.58 g/m*3 12.7 C 0 km/h
742 24-09-2010 21:00:00 12.82 C 10.65 g/m*3 12.82 C 0 km/h
743 24-09-2010 22:00:00 12.7 C 10.58 g/m*3 12.7 C 0 km/h
744 24-09-2010 23:00:00 12.4 C 10.38 g/m*3 12.4 C 0 km/h

Maximal/Minimal-Werte vom 25.08.2010 - 24.09.2010

Sensor Min Max Avg
Temp
(Aussen-T/F)
5.5 °C
19-09-2010  06:04:05
28 °C
11-09-2010  17:09:02
15.33 °C
Abs-Feuchte
(Aussen-T/F)
4.32 g/m*3
06-09-2010  16:00:00
15.32 g/m*3
27-08-2010  06:00:00
8.66 g/m*3
Windchill
(Aussen-T/F)
5.76 C
19-09-2010  06:00:00
27.62 C
11-09-2010  17:00:00
15.31 C

Die Daten stammen von einer Davis Vantage Pro 2 Wetter-Station und werden unter Linux mit der Software wview2wettercgi und aufbereitet. Alle Angaben erfolgen ohne Gewähr für ihre Vollständigkeit oder Richtigkeit.
Kontakt: Rainer Krienke krienke@uni-koblenz.de . Meine Webseiten an der Uni Koblenz oder privat.
Version: $Revision: 0.78 $